createdAt,value
2017-11-30T00:00:35.270Z,99.99
2017-11-30T00:01:35.840Z,99.99
2017-11-30T00:02:36.407Z,99.99
2017-11-30T00:03:36.975Z,99.99
2017-11-30T00:04:37.542Z,99.99
2017-11-30T00:05:38.110Z,99.99
2017-11-30T00:06:38.678Z,99.99
2017-11-30T00:07:39.251Z,99.99
2017-11-30T00:08:39.816Z,99.99
2017-11-30T00:09:40.386Z,99.99
2017-11-30T00:10:40.947Z,99.99
2017-11-30T00:11:41.516Z,99.99
2017-11-30T00:12:42.084Z,99.99
2017-11-30T00:13:42.653Z,99.99
2017-11-30T00:14:43.221Z,99.99
2017-11-30T00:15:43.792Z,99.99
2017-11-30T00:16:44.370Z,99.99
2017-11-30T00:17:44.937Z,99.99
2017-11-30T00:18:45.522Z,99.99
2017-11-30T00:19:46.086Z,99.99
2017-11-30T00:20:46.653Z,99.99
2017-11-30T00:21:47.220Z,99.99
2017-11-30T00:22:47.789Z,99.99
2017-11-30T00:23:48.358Z,99.99
2017-11-30T00:24:48.928Z,99.99
2017-11-30T00:25:49.493Z,99.99
2017-11-30T00:26:50.062Z,99.99
2017-11-30T00:27:50.629Z,99.99
2017-11-30T00:28:51.202Z,99.99
2017-11-30T00:29:51.766Z,99.99
2017-11-30T00:30:52.332Z,99.99
2017-11-30T00:31:52.901Z,99.99
2017-11-30T00:32:53.467Z,99.99
2017-11-30T00:33:54.036Z,99.99
2017-11-30T00:34:54.604Z,99.99
2017-11-30T00:35:55.169Z,99.99
2017-11-30T00:36:55.737Z,99.99
2017-11-30T00:37:56.319Z,99.99
2017-11-30T00:38:56.888Z,99.99
2017-11-30T00:39:57.454Z,99.99
2017-11-30T00:40:58.022Z,99.99
2017-11-30T00:41:58.590Z,99.99
2017-11-30T00:42:59.159Z,99.99
2017-11-30T00:43:59.726Z,99.99
2017-11-30T00:45:00.306Z,99.99
2017-11-30T00:46:00.865Z,99.99
2017-11-30T00:47:01.429Z,99.99
2017-11-30T00:48:02.000Z,99.99
2017-11-30T00:49:02.582Z,99.99
2017-11-30T00:50:03.153Z,99.99
2017-11-30T00:51:03.720Z,99.99
2017-11-30T00:52:04.287Z,99.99
2017-11-30T00:53:04.855Z,99.99
2017-11-30T00:54:05.423Z,99.99
2017-11-30T00:55:05.992Z,99.99
2017-11-30T00:56:06.566Z,99.99
2017-11-30T00:57:07.127Z,99.99
2017-11-30T00:58:07.709Z,99.99
2017-11-30T00:59:08.279Z,99.99
2017-11-30T01:00:08.862Z,99.99
2017-11-30T01:01:09.429Z,99.99
2017-11-30T01:02:09.998Z,99.99
2017-11-30T01:03:10.579Z,99.99
2017-11-30T01:04:11.148Z,99.99
2017-11-30T01:05:11.715Z,99.99
2017-11-30T01:06:12.283Z,99.99
2017-11-30T01:07:12.851Z,99.99
2017-11-30T01:08:13.421Z,99.99
2017-11-30T01:09:13.988Z,99.99
2017-11-30T01:10:14.556Z,99.99
2017-11-30T01:11:15.124Z,99.99
2017-11-30T01:12:15.692Z,99.99
2017-11-30T01:13:16.261Z,99.99
2017-11-30T01:14:16.827Z,99.99
2017-11-30T01:15:17.396Z,99.99
2017-11-30T01:16:17.963Z,99.99
2017-11-30T01:17:18.529Z,99.99
2017-11-30T01:18:19.104Z,99.99
2017-11-30T01:19:19.678Z,99.99
2017-11-30T01:20:20.245Z,99.99
2017-11-30T01:21:20.811Z,99.99
2017-11-30T01:22:21.377Z,99.99
2017-11-30T01:23:21.948Z,99.99
2017-11-30T01:24:22.516Z,99.99
2017-11-30T01:25:23.099Z,99.99
2017-11-30T01:26:23.667Z,99.99
2017-11-30T01:27:24.234Z,99.99
2017-11-30T01:28:24.812Z,99.99
2017-11-30T01:29:25.368Z,99.99
2017-11-30T01:30:25.936Z,99.99
2017-11-30T01:31:26.504Z,99.99
2017-11-30T01:32:27.088Z,99.99
2017-11-30T01:33:27.654Z,99.99
2017-11-30T01:34:28.225Z,99.99
2017-11-30T01:35:28.792Z,99.99
2017-11-30T01:36:29.359Z,99.99
2017-11-30T01:37:29.925Z,99.99
2017-11-30T01:38:30.494Z,99.99
2017-11-30T01:39:31.061Z,99.99
2017-11-30T01:40:31.628Z,99.99
2017-11-30T01:48:59.781Z,99.99
2017-11-30T01:50:00.344Z,99.99
2017-11-30T01:51:00.914Z,99.99
2017-11-30T01:52:01.489Z,99.99
2017-11-30T01:53:02.052Z,99.99
2017-11-30T01:54:02.621Z,99.99
2017-11-30T01:55:03.189Z,99.99
2017-11-30T01:56:03.762Z,99.99
2017-11-30T01:57:04.325Z,99.99
2017-11-30T01:58:04.892Z,99.99
2017-11-30T01:59:05.462Z,99.99
2017-11-30T02:00:06.033Z,99.99
2017-11-30T02:01:06.612Z,99.99
2017-11-30T02:02:07.181Z,99.99
2017-11-30T02:03:07.748Z,99.99
2017-11-30T02:04:08.317Z,99.99
2017-11-30T02:05:08.886Z,99.99
2017-11-30T02:06:09.455Z,99.99
2017-11-30T02:07:10.022Z,99.99
2017-11-30T02:08:10.589Z,99.99
2017-11-30T02:09:11.158Z,99.99
2017-11-30T02:10:11.727Z,99.99
2017-11-30T02:11:12.294Z,99.99
2017-11-30T02:12:12.864Z,99.99
2017-11-30T02:13:13.431Z,99.99
2017-11-30T02:14:13.998Z,99.99
2017-11-30T02:15:14.568Z,99.99
2017-11-30T02:16:15.137Z,99.99
2017-11-30T02:17:15.705Z,99.99
2017-11-30T02:18:16.272Z,99.99
2017-11-30T02:19:16.841Z,99.99
2017-11-30T02:20:17.410Z,99.99
2017-11-30T02:21:17.978Z,99.99
2017-11-30T02:22:18.547Z,99.99
2017-11-30T02:23:19.115Z,99.99
2017-11-30T02:24:19.682Z,99.99
2017-11-30T02:25:20.252Z,99.99
2017-11-30T02:26:20.821Z,99.99
2017-11-30T02:27:21.390Z,99.99
2017-11-30T02:28:21.957Z,99.99
2017-11-30T02:29:22.525Z,99.99
2017-11-30T02:30:23.092Z,99.99
2017-11-30T02:31:23.663Z,99.99
2017-11-30T02:32:24.230Z,99.99
2017-11-30T02:33:31.065Z,99.99
2017-11-30T02:34:31.637Z,99.99
2017-11-30T02:35:32.211Z,99.99
2017-11-30T02:36:32.787Z,99.99
2017-11-30T02:37:33.356Z,99.99
2017-11-30T02:38:33.925Z,99.99
2017-11-30T02:39:34.491Z,99.99
2017-11-30T02:40:35.060Z,99.99
2017-11-30T02:41:35.627Z,99.99
2017-11-30T02:42:36.204Z,99.99
2017-11-30T02:43:36.762Z,99.99
2017-11-30T02:44:37.330Z,99.99
2017-11-30T02:45:37.899Z,99.99
2017-11-30T02:46:38.467Z,99.99
2017-11-30T02:47:39.050Z,99.99
2017-11-30T02:48:39.620Z,99.99
2017-11-30T02:49:40.186Z,99.99
2017-11-30T02:50:40.755Z,99.99
2017-11-30T02:51:41.321Z,99.99
2017-11-30T02:52:41.893Z,99.99
2017-11-30T02:53:42.456Z,99.99
2017-11-30T02:54:43.025Z,99.99
2017-11-30T02:55:43.594Z,99.99
2017-11-30T02:56:44.158Z,99.99
2017-11-30T02:57:44.726Z,99.99
2017-11-30T02:58:45.295Z,99.99
2017-11-30T02:59:45.861Z,99.99
2017-11-30T03:00:46.443Z,99.99
2017-11-30T03:01:47.009Z,99.99
2017-11-30T03:02:47.577Z,99.99
2017-11-30T03:03:48.147Z,99.99
2017-11-30T03:04:48.712Z,99.99
2017-11-30T03:05:49.279Z,99.99
2017-11-30T03:06:49.859Z,99.99
2017-11-30T03:07:50.427Z,99.99
2017-11-30T03:08:50.993Z,99.99
2017-11-30T03:09:51.559Z,99.99
2017-11-30T03:10:52.126Z,99.99
2017-11-30T03:11:52.709Z,99.99
2017-11-30T03:12:53.287Z,99.99
2017-11-30T03:13:53.883Z,99.99
2017-11-30T03:14:54.435Z,99.99
2017-11-30T03:15:55.001Z,99.99
2017-11-30T03:16:55.568Z,99.99
2017-11-30T03:17:56.136Z,99.99
2017-11-30T03:18:56.703Z,99.99
2017-11-30T03:19:57.271Z,99.99
2017-11-30T03:20:57.841Z,99.99
2017-11-30T03:21:58.415Z,99.99
2017-11-30T03:22:58.974Z,99.99
2017-11-30T03:23:59.540Z,99.99
2017-11-30T03:25:00.106Z,99.99
2017-11-30T03:26:00.675Z,99.99
2017-11-30T03:27:01.241Z,99.99
2017-11-30T03:28:01.812Z,99.99
2017-11-30T03:29:02.393Z,99.99
2017-11-30T03:30:03.000Z,99.99
2017-11-30T03:31:03.529Z,99.99
2017-11-30T03:32:04.095Z,99.99
2017-11-30T03:33:04.661Z,99.99
2017-11-30T03:34:05.228Z,99.99
2017-11-30T03:35:05.795Z,99.99
2017-11-30T03:36:06.364Z,99.99
2017-11-30T03:37:06.931Z,99.99
2017-11-30T03:38:07.497Z,99.99
2017-11-30T03:39:08.064Z,99.99
2017-11-30T03:40:08.633Z,99.99
2017-11-30T03:41:09.199Z,99.99
2017-11-30T03:42:09.767Z,99.99
2017-11-30T03:43:10.336Z,99.99
2017-11-30T03:44:10.906Z,99.99
2017-11-30T03:45:11.477Z,99.99
2017-11-30T03:46:12.041Z,99.99
2017-11-30T03:47:12.609Z,99.99
2017-11-30T03:48:13.177Z,99.99
2017-11-30T03:49:13.760Z,99.99
2017-11-30T03:50:14.325Z,99.99
2017-11-30T03:51:14.896Z,99.99
2017-11-30T03:52:15.464Z,99.99
2017-11-30T03:53:16.032Z,99.99
2017-11-30T03:54:16.598Z,99.99
2017-11-30T03:55:17.166Z,99.99
2017-11-30T03:56:17.735Z,99.99
2017-11-30T03:57:18.303Z,99.99
2017-11-30T03:58:18.870Z,99.99
2017-11-30T03:59:19.436Z,99.99
2017-11-30T04:00:20.002Z,99.99
2017-11-30T04:01:20.571Z,99.99
2017-11-30T04:02:21.152Z,99.99
2017-11-30T04:03:21.721Z,99.99
2017-11-30T04:24:42.573Z,99.99
2017-11-30T04:25:43.141Z,99.99
2017-11-30T04:26:43.709Z,99.99
2017-11-30T04:27:44.276Z,99.99
2017-11-30T04:28:44.845Z,99.99
2017-11-30T04:29:45.412Z,99.99
2017-11-30T04:30:45.977Z,99.99
2017-11-30T04:31:46.547Z,99.99
2017-11-30T04:32:47.126Z,99.99
2017-11-30T04:33:47.694Z,99.99
2017-11-30T04:34:48.263Z,99.99
2017-11-30T04:35:48.831Z,99.99
2017-11-30T04:36:49.410Z,99.99
2017-11-30T04:37:49.989Z,99.99
2017-11-30T04:38:50.546Z,99.99
2017-11-30T04:39:51.114Z,99.99
2017-11-30T04:40:51.680Z,99.99
2017-11-30T04:41:52.248Z,99.99
2017-11-30T04:42:52.816Z,99.99
2017-11-30T04:43:53.384Z,99.99
2017-11-30T04:44:53.951Z,99.99
2017-11-30T04:45:54.517Z,99.99
2017-11-30T04:46:55.100Z,99.99
2017-11-30T04:47:55.666Z,99.99
2017-11-30T04:48:56.233Z,99.99
2017-11-30T04:49:56.801Z,99.99
2017-11-30T04:50:57.374Z,99.99
2017-11-30T04:51:57.937Z,99.99
2017-11-30T04:52:58.505Z,99.99
2017-11-30T04:53:59.071Z,99.99
2017-11-30T04:54:59.638Z,99.99
2017-11-30T04:56:00.207Z,99.99
2017-11-30T04:57:00.774Z,99.99
2017-11-30T04:58:01.343Z,99.99
2017-11-30T04:59:01.912Z,99.99
2017-11-30T05:00:02.476Z,99.99
2017-11-30T05:01:03.041Z,99.99
2017-11-30T05:02:03.611Z,99.99
2017-11-30T05:03:04.178Z,99.99
2017-11-30T05:04:04.754Z,99.99
2017-11-30T05:05:05.310Z,99.99
2017-11-30T05:06:05.876Z,99.99
2017-11-30T05:07:06.445Z,99.99
2017-11-30T05:08:07.009Z,99.99
2017-11-30T05:09:07.576Z,99.99
2017-11-30T05:10:08.146Z,99.99
2017-11-30T05:11:08.712Z,99.99
2017-11-30T05:12:09.280Z,99.99
2017-11-30T05:13:09.851Z,99.99
2017-11-30T05:14:10.415Z,99.99
2017-11-30T05:15:10.990Z,99.99
2017-11-30T05:16:11.550Z,99.99
2017-11-30T05:17:12.132Z,99.62
2017-11-30T05:18:12.700Z,99.24
2017-11-30T05:19:13.269Z,99.52
2017-11-30T05:20:13.848Z,99.52
2017-11-30T05:21:14.415Z,99.33
2017-11-30T05:22:14.984Z,99.43
2017-11-30T05:23:15.564Z,99.24
2017-11-30T05:24:16.129Z,99.33
2017-11-30T05:25:16.701Z,98.86
2017-11-30T05:26:17.263Z,98.58
2017-11-30T05:27:17.831Z,98.96
2017-11-30T05:28:18.398Z,98.86
2017-11-30T05:29:18.978Z,98.67
2017-11-30T05:30:19.549Z,98.96
2017-11-30T05:31:20.115Z,98.01
2017-11-30T05:32:20.680Z,97.91
2017-11-30T05:33:21.248Z,97.82
2017-11-30T05:34:21.815Z,97.82
2017-11-30T05:35:22.383Z,97.44
2017-11-30T05:36:22.950Z,97.82
2017-11-30T05:37:23.517Z,97.44
2017-11-30T05:38:24.085Z,97.53
2017-11-30T05:39:24.650Z,97.34
2017-11-30T05:40:25.218Z,96.87
2017-11-30T05:41:25.786Z,96.87
2017-11-30T05:42:26.353Z,96.87
2017-11-30T05:43:26.921Z,97.16
2017-11-30T05:44:27.500Z,96.59
2017-11-30T05:45:28.068Z,96.78
2017-11-30T05:46:28.634Z,96.50
2017-11-30T05:47:29.199Z,96.69
2017-11-30T05:48:29.765Z,96.02
2017-11-30T05:49:30.333Z,96.31
2017-11-30T05:50:30.901Z,96.31
2017-11-30T05:51:31.480Z,96.40
2017-11-30T05:52:32.047Z,96.21
2017-11-30T05:53:32.626Z,95.83
2017-11-30T05:54:33.206Z,95.55
2017-11-30T05:55:33.762Z,95.64
2017-11-30T05:56:34.329Z,95.64
2017-11-30T05:57:34.896Z,95.17
2017-11-30T05:58:35.464Z,95.26
2017-11-30T05:59:36.030Z,95.45
2017-11-30T06:00:36.598Z,94.70
2017-11-30T06:01:37.166Z,94.60
2017-11-30T06:02:37.732Z,95.07
2017-11-30T06:03:38.300Z,94.70
2017-11-30T06:04:38.870Z,94.46
2017-11-30T06:05:39.438Z,94.42
2017-11-30T06:06:40.005Z,94.51
2017-11-30T06:07:40.586Z,93.94
2017-11-30T06:08:41.154Z,94.13
2017-11-30T06:09:41.723Z,94.04
2017-11-30T06:10:42.289Z,93.75
2017-11-30T06:11:42.857Z,93.66
2017-11-30T06:12:43.441Z,93.66
2017-11-30T06:13:43.993Z,93.28
2017-11-30T06:14:44.561Z,93.47
2017-11-30T06:15:45.127Z,93.47
2017-11-30T06:16:45.695Z,93.37
2017-11-30T06:17:46.275Z,92.90
2017-11-30T06:18:46.842Z,92.90
2017-11-30T06:19:47.408Z,92.61
2017-11-30T06:20:47.974Z,92.80
2017-11-30T06:21:48.556Z,92.71
2017-11-30T06:22:49.110Z,92.71
2017-11-30T06:23:49.691Z,92.43
2017-11-30T06:24:50.260Z,92.43
2017-11-30T06:25:50.841Z,92.80
2017-11-30T06:26:51.410Z,92.61
2017-11-30T06:27:51.981Z,91.77
2017-11-30T06:28:52.560Z,91.48
2017-11-30T06:29:53.129Z,91.48
2017-11-30T06:30:53.693Z,91.29
2017-11-30T06:31:54.261Z,90.72
2017-11-30T06:32:54.828Z,90.82
2017-11-30T06:33:55.397Z,90.96
2017-11-30T06:34:55.964Z,90.20
2017-11-30T06:35:56.531Z,90.20
2017-11-30T06:36:57.099Z,89.97
2017-11-30T06:37:57.673Z,90.16
2017-11-30T06:38:58.235Z,89.97
2017-11-30T06:39:58.810Z,89.35
2017-11-30T06:40:59.368Z,89.69
2017-11-30T06:41:59.935Z,89.87
2017-11-30T06:43:00.502Z,89.78
2017-11-30T06:44:01.069Z,89.69
2017-11-30T06:45:01.638Z,89.31
2017-11-30T06:46:02.203Z,89.12
2017-11-30T06:47:02.771Z,88.97
2017-11-30T06:48:03.340Z,88.78
2017-11-30T06:49:03.904Z,88.74
2017-11-30T06:50:04.474Z,88.55
2017-11-30T06:51:05.037Z,88.36
2017-11-30T06:52:05.605Z,88.83
2017-11-30T06:53:06.198Z,88.17
2017-11-30T06:54:06.755Z,88.21
2017-11-30T06:55:07.342Z,88.07
2017-11-30T06:56:07.902Z,87.79
2017-11-30T06:57:08.472Z,87.32
2017-11-30T06:58:09.038Z,87.51
2017-11-30T06:59:09.619Z,87.74
2017-11-30T07:00:10.185Z,87.32
2017-11-30T07:01:10.753Z,86.28
2017-11-30T07:02:11.318Z,86.79
2017-11-30T07:03:11.886Z,86.60
2017-11-30T07:04:12.454Z,85.85
2017-11-30T07:05:13.022Z,85.71
2017-11-30T07:06:13.590Z,86.04
2017-11-30T07:07:14.157Z,85.47
2017-11-30T07:08:14.724Z,85.57
2017-11-30T07:09:15.296Z,85.57
2017-11-30T07:10:15.859Z,85.57
2017-11-30T07:11:16.427Z,85.38
2017-11-30T07:12:16.992Z,85.33
2017-11-30T07:13:17.560Z,84.90
2017-11-30T07:14:18.130Z,84.71
2017-11-30T07:15:18.695Z,84.67
2017-11-30T07:16:19.262Z,84.52
2017-11-30T07:17:19.843Z,84.42
2017-11-30T07:18:20.414Z,84.14
2017-11-30T07:19:20.980Z,84.05
2017-11-30T07:20:21.546Z,84.05
2017-11-30T07:21:22.114Z,84.05
2017-11-30T07:22:22.680Z,83.67
2017-11-30T07:23:23.247Z,83.48
2017-11-30T07:24:23.816Z,83.20
2017-11-30T07:25:24.380Z,83.20
2017-11-30T07:26:24.949Z,82.72
2017-11-30T07:27:25.531Z,82.15
2017-11-30T07:28:26.097Z,82.06
2017-11-30T07:29:26.662Z,81.21
2017-11-30T07:30:27.231Z,81.87
2017-11-30T07:31:27.799Z,81.96
2017-11-30T07:32:28.379Z,81.77
2017-11-30T07:33:28.946Z,81.49
2017-11-30T07:34:29.514Z,81.40
2017-11-30T07:35:30.083Z,81.49
2017-11-30T07:36:30.651Z,81.21
2017-11-30T07:37:31.219Z,81.21
2017-11-30T07:38:31.786Z,80.93
2017-11-30T07:39:32.356Z,80.93
2017-11-30T07:40:32.931Z,80.74
2017-11-30T07:41:33.507Z,80.55
2017-11-30T07:42:34.075Z,80.83
2017-11-30T07:43:34.644Z,80.36
2017-11-30T07:44:35.227Z,80.83
2017-11-30T07:45:35.796Z,80.36
2017-11-30T07:46:36.360Z,80.36
2017-11-30T07:47:36.928Z,80.26
2017-11-30T07:48:37.497Z,80.45
2017-11-30T07:49:38.067Z,80.45
2017-11-30T07:50:38.636Z,80.07
2017-11-30T07:51:39.217Z,80.45
2017-11-30T07:52:39.785Z,80.26
2017-11-30T07:53:40.352Z,79.88
2017-11-30T07:54:40.922Z,80.26
2017-11-30T07:55:41.492Z,80.26
2017-11-30T07:56:42.060Z,79.98
2017-11-30T07:57:42.628Z,80.07
2017-11-30T07:58:43.196Z,79.79
2017-11-30T07:59:43.765Z,79.50
2017-11-30T08:00:44.334Z,79.50
2017-11-30T08:01:44.905Z,79.50
2017-11-30T08:02:45.471Z,79.50
2017-11-30T08:03:46.039Z,79.50
2017-11-30T08:04:46.607Z,79.03
2017-11-30T08:05:47.178Z,79.13
2017-11-30T08:06:47.747Z,79.22
2017-11-30T08:07:48.315Z,79.69
2017-11-30T08:08:48.885Z,79.32
2017-11-30T08:09:49.461Z,79.50
2017-11-30T08:10:50.022Z,79.50
2017-11-30T08:11:50.591Z,78.94
2017-11-30T08:12:51.170Z,78.94
2017-11-30T08:13:51.731Z,78.75
2017-11-30T08:14:52.298Z,78.94
2017-11-30T08:15:52.902Z,78.85
2017-11-30T08:16:53.435Z,78.75
2017-11-30T08:17:54.008Z,78.85
2017-11-30T08:18:54.577Z,78.65
2017-11-30T08:19:55.163Z,78.56
2017-11-30T08:20:55.726Z,78.08
2017-11-30T08:21:56.308Z,77.99
2017-11-30T08:22:56.878Z,78.65
2017-11-30T08:23:57.451Z,78.46
2017-11-30T08:24:58.015Z,78.37
2017-11-30T08:25:58.584Z,78.27
2017-11-30T08:26:59.152Z,78.37
2017-11-30T08:27:59.721Z,78.08
2017-11-30T08:29:00.291Z,78.46
2017-11-30T08:30:00.859Z,78.08
2017-11-30T08:31:01.443Z,77.80
2017-11-30T08:32:02.013Z,77.80
2017-11-30T08:33:02.582Z,78.27
2017-11-30T08:34:03.150Z,77.99
2017-11-30T08:35:03.717Z,77.89
2017-11-30T08:36:04.286Z,77.33
2017-11-30T08:37:04.872Z,77.89
2017-11-30T08:38:05.443Z,78.08
2017-11-30T08:39:06.010Z,78.08
2017-11-30T08:40:06.593Z,77.23
2017-11-30T08:41:07.163Z,77.89
2017-11-30T08:42:07.731Z,77.42
2017-11-30T08:43:08.298Z,77.70
2017-11-30T08:44:08.869Z,77.61
2017-11-30T08:45:09.438Z,77.42
2017-11-30T08:46:10.007Z,77.51
2017-11-30T08:47:10.589Z,77.42
2017-11-30T08:48:11.164Z,77.18
2017-11-30T08:49:11.728Z,76.51
2017-11-30T08:50:12.299Z,76.80
2017-11-30T08:51:12.868Z,76.99
2017-11-30T08:52:13.454Z,76.42
2017-11-30T08:53:14.023Z,77.51
2017-11-30T08:54:14.596Z,77.23
2017-11-30T08:55:15.165Z,77.33
2017-11-30T08:56:15.734Z,77.23
2017-11-30T08:57:16.303Z,75.43
2017-11-30T08:58:16.873Z,74.87
2017-11-30T08:59:17.456Z,74.52
2017-11-30T09:00:18.028Z,74.62
2017-11-30T09:01:18.598Z,74.15
2017-11-30T09:02:19.167Z,74.24
2017-11-30T09:03:19.740Z,74.24
2017-11-30T09:04:20.309Z,74.24
2017-11-30T09:05:20.878Z,74.24
2017-11-30T09:06:21.444Z,74.33
2017-11-30T09:07:22.015Z,74.24
2017-11-30T09:08:22.583Z,74.77
2017-11-30T09:09:23.172Z,74.52
2017-11-30T09:10:23.737Z,74.52
2017-11-30T09:11:24.305Z,74.90
2017-11-30T09:12:24.873Z,74.33
2017-11-30T09:13:25.443Z,74.15
2017-11-30T09:14:26.014Z,74.33
2017-11-30T09:15:26.584Z,74.33
2017-11-30T09:16:27.186Z,74.43
2017-11-30T09:17:27.738Z,74.52
2017-11-30T09:18:28.306Z,74.15
2017-11-30T09:19:28.890Z,74.33
2017-11-30T09:20:29.458Z,74.33
2017-11-30T09:21:30.040Z,74.62
2017-11-30T09:22:30.614Z,74.71
2017-11-30T09:23:31.178Z,74.24
2017-11-30T09:24:31.747Z,74.62
2017-11-30T09:25:32.316Z,74.62
2017-11-30T09:26:32.885Z,74.90
2017-11-30T09:27:33.457Z,74.62
2017-11-30T09:28:34.026Z,74.33
2017-11-30T09:29:34.594Z,74.81
2017-11-30T09:30:35.176Z,74.62
2017-11-30T09:31:35.745Z,74.62
2017-11-30T09:32:36.315Z,74.71
2017-11-30T09:33:36.888Z,74.62
2017-11-30T09:34:37.457Z,74.71
2017-11-30T09:35:38.027Z,74.43
2017-11-30T09:36:38.599Z,74.71
2017-11-30T09:37:39.168Z,74.81
2017-11-30T09:38:39.737Z,74.43
2017-11-30T09:39:40.315Z,74.52
2017-11-30T09:40:40.879Z,74.81
2017-11-30T09:41:41.449Z,74.81
2017-11-30T09:42:42.020Z,74.81
2017-11-30T09:43:42.589Z,74.81
2017-11-30T09:44:43.160Z,75.00
2017-11-30T09:45:43.730Z,74.43
2017-11-30T09:46:44.303Z,74.90
2017-11-30T09:47:44.885Z,74.33
2017-11-30T09:48:45.456Z,74.81
2017-11-30T09:49:46.025Z,75.28
2017-11-30T09:50:46.609Z,75.38
2017-11-30T09:51:47.165Z,75.66
2017-11-30T09:52:47.736Z,75.66
2017-11-30T09:53:48.305Z,75.38
2017-11-30T09:54:48.873Z,75.47
2017-11-30T09:55:49.447Z,75.28
2017-11-30T09:56:50.017Z,75.57
2017-11-30T09:57:50.584Z,75.57
2017-11-30T09:58:51.152Z,75.57
2017-11-30T09:59:51.735Z,75.76
2017-11-30T10:00:52.303Z,75.19
2017-11-30T10:01:52.871Z,76.04
2017-11-30T10:02:53.440Z,76.04
2017-11-30T10:03:54.009Z,75.95
2017-11-30T10:04:54.577Z,76.14
2017-11-30T10:05:55.147Z,76.04
2017-11-30T10:06:55.714Z,76.14
2017-11-30T10:07:56.285Z,76.42
2017-11-30T10:08:56.853Z,76.42
2017-11-30T10:09:57.421Z,76.70
2017-11-30T10:10:58.002Z,76.99
2017-11-30T10:11:58.571Z,76.61
2017-11-30T10:12:59.141Z,76.61
2017-11-30T10:13:59.713Z,76.80
2017-11-30T10:15:00.285Z,76.61
2017-11-30T10:16:00.868Z,76.99
2017-11-30T10:17:01.439Z,77.46
2017-11-30T10:18:02.010Z,77.65
2017-11-30T10:19:02.579Z,77.94
2017-11-30T10:20:03.151Z,77.94
2017-11-30T10:21:03.723Z,78.12
2017-11-30T10:22:04.305Z,78.31
2017-11-30T10:23:04.876Z,78.88
2017-11-30T10:24:05.448Z,78.16
2017-11-30T10:25:06.016Z,79.02
2017-11-30T10:26:06.586Z,78.83
2017-11-30T10:27:07.158Z,79.49
2017-11-30T10:28:07.729Z,80.40
2017-11-30T10:29:08.297Z,80.34
2017-11-30T10:30:08.868Z,81.20
2017-11-30T10:31:09.436Z,82.33
2017-11-30T10:32:10.009Z,82.52
2017-11-30T10:33:10.579Z,82.62
2017-11-30T10:34:11.148Z,83.37
2017-11-30T10:35:11.721Z,83.47
2017-11-30T10:36:12.290Z,84.13
2017-11-30T10:37:12.868Z,84.42
2017-11-30T10:38:13.427Z,85.17
2017-11-30T10:39:13.996Z,85.46
2017-11-30T10:40:14.567Z,85.65
2017-11-30T10:41:15.143Z,86.22
2017-11-30T10:42:15.705Z,86.60
2017-11-30T10:43:16.275Z,87.07
2017-11-30T10:44:16.844Z,86.98
2017-11-30T10:45:17.415Z,87.35
2017-11-30T10:46:17.985Z,88.68
2017-11-30T10:47:18.556Z,88.02
2017-11-30T10:48:19.127Z,88.87
2017-11-30T10:49:19.696Z,90.48
2017-11-30T10:50:20.267Z,91.62
2017-11-30T10:51:20.839Z,92.09
2017-11-30T10:52:21.409Z,93.04
2017-11-30T10:53:21.978Z,94.84
2017-11-30T10:54:22.551Z,95.79
2017-11-30T10:55:23.120Z,97.11
2017-11-30T10:56:23.692Z,97.49
2017-11-30T10:57:24.265Z,98.91
2017-11-30T10:58:24.831Z,99.58
2017-11-30T10:59:25.404Z,99.99
2017-11-30T11:00:25.972Z,99.99
2017-11-30T11:01:26.543Z,99.99
2017-11-30T11:02:27.114Z,99.99
2017-11-30T11:03:27.688Z,99.99
2017-11-30T11:04:28.253Z,99.99
2017-11-30T11:05:28.824Z,99.99
2017-11-30T11:06:29.395Z,99.99
2017-11-30T11:07:29.965Z,99.99
2017-11-30T11:08:30.535Z,99.99
2017-11-30T11:09:31.105Z,99.99
2017-11-30T11:10:31.690Z,99.99
2017-11-30T11:11:32.275Z,99.99
2017-11-30T11:12:32.861Z,99.99
2017-11-30T11:13:33.434Z,99.99
2017-11-30T11:14:34.008Z,99.99
2017-11-30T11:15:34.585Z,99.99
2017-11-30T11:16:35.155Z,99.99
2017-11-30T11:17:35.723Z,99.99
2017-11-30T11:18:36.293Z,99.99
2017-11-30T11:19:36.866Z,99.99
2017-11-30T11:20:37.451Z,99.99
2017-11-30T11:21:38.020Z,99.99
2017-11-30T11:22:38.590Z,99.99
2017-11-30T11:23:39.161Z,99.99
2017-11-30T11:24:39.730Z,99.99
2017-11-30T11:25:40.300Z,99.99
2017-11-30T11:26:40.869Z,99.99
2017-11-30T11:27:41.441Z,99.99
2017-11-30T11:28:42.013Z,99.99
2017-11-30T11:29:42.584Z,99.99
2017-11-30T11:30:43.156Z,99.99
2017-11-30T11:31:43.729Z,99.99
2017-11-30T11:32:44.300Z,99.99
2017-11-30T11:33:44.873Z,99.99
2017-11-30T11:34:45.446Z,99.99
2017-11-30T11:35:46.021Z,99.99
2017-11-30T11:36:46.603Z,99.99
2017-11-30T11:37:47.176Z,99.99
2017-11-30T11:38:47.749Z,99.99
2017-11-30T11:39:48.321Z,99.99
2017-11-30T11:40:48.893Z,99.99
2017-11-30T11:41:49.464Z,99.99
2017-11-30T11:42:50.038Z,99.99
2017-11-30T11:43:50.611Z,99.99
2017-11-30T11:44:51.186Z,99.99
2017-11-30T11:45:51.754Z,99.99
2017-11-30T11:46:52.337Z,99.99
2017-11-30T11:47:52.912Z,99.99
2017-11-30T11:48:53.489Z,99.99
2017-11-30T11:49:54.055Z,99.99
2017-11-30T11:50:54.627Z,99.99
2017-11-30T11:51:55.201Z,99.99
2017-11-30T11:52:55.771Z,99.99
2017-11-30T11:53:56.342Z,99.99
2017-11-30T11:54:56.915Z,99.99
2017-11-30T11:55:57.485Z,99.99
2017-11-30T11:56:58.056Z,99.99
2017-11-30T11:57:58.638Z,99.99
2017-11-30T11:58:59.214Z,99.99
2017-11-30T11:59:59.780Z,99.99
2017-11-30T12:01:00.366Z,99.99
2017-11-30T12:02:00.941Z,99.99
2017-11-30T12:03:01.521Z,99.99
2017-11-30T12:04:02.107Z,99.99
2017-11-30T12:05:02.677Z,99.99
2017-11-30T12:06:03.247Z,99.99
2017-11-30T12:07:03.819Z,99.99
2017-11-30T12:08:04.389Z,99.99
2017-11-30T12:09:04.960Z,99.99
2017-11-30T12:10:05.532Z,99.99
2017-11-30T12:11:06.102Z,99.99
2017-11-30T12:12:06.672Z,99.99
2017-11-30T12:13:07.241Z,99.99
2017-11-30T12:14:07.812Z,99.99
2017-11-30T12:15:08.384Z,99.99
2017-11-30T12:16:08.956Z,99.99
2017-11-30T12:17:09.525Z,99.99
2017-11-30T12:18:10.100Z,99.99
2017-11-30T12:19:10.670Z,99.99
2017-11-30T12:20:11.249Z,99.99
2017-11-30T12:21:11.815Z,99.99
2017-11-30T12:22:12.387Z,99.99
2017-11-30T12:23:12.961Z,99.99
2017-11-30T12:24:13.541Z,99.99
2017-11-30T12:25:14.103Z,99.99
2017-11-30T12:26:14.674Z,99.99
2017-11-30T12:27:15.258Z,99.99
2017-11-30T12:28:15.829Z,99.99
2017-11-30T12:29:16.422Z,99.99
2017-11-30T12:30:16.984Z,99.99
2017-11-30T12:31:17.556Z,99.99
2017-11-30T12:32:18.125Z,99.99
2017-11-30T12:33:18.712Z,99.99
2017-11-30T12:34:19.283Z,99.99
2017-11-30T12:35:19.854Z,99.99
2017-11-30T12:36:20.429Z,99.99
2017-11-30T12:37:21.008Z,99.99
2017-11-30T12:38:21.578Z,99.99
2017-11-30T12:39:22.147Z,99.99
2017-11-30T12:40:22.718Z,99.99
2017-11-30T12:41:23.289Z,99.99
2017-11-30T12:42:23.859Z,99.99
2017-11-30T12:43:24.440Z,99.99
2017-11-30T12:44:25.009Z,99.99
2017-11-30T12:45:25.578Z,99.99
2017-11-30T12:46:26.148Z,99.99
2017-11-30T12:47:26.719Z,99.99
2017-11-30T12:48:27.289Z,99.99
2017-11-30T12:49:27.858Z,99.99
2017-11-30T12:50:28.427Z,99.99
2017-11-30T12:51:28.997Z,99.99
2017-11-30T12:52:29.569Z,99.99
2017-11-30T12:53:30.139Z,99.99
2017-11-30T12:54:30.715Z,99.99
2017-11-30T12:55:31.279Z,99.99
2017-11-30T12:56:31.849Z,99.99
2017-11-30T12:57:32.417Z,99.99
2017-11-30T12:58:32.986Z,99.99
2017-11-30T12:59:33.555Z,99.99
2017-11-30T13:00:34.126Z,99.99
2017-11-30T13:01:34.695Z,99.99
2017-11-30T13:02:35.264Z,99.99
2017-11-30T13:03:35.833Z,99.99
2017-11-30T13:04:36.403Z,99.99
2017-11-30T13:05:36.972Z,99.99
2017-11-30T13:06:37.541Z,99.99
2017-11-30T13:07:38.112Z,99.99
2017-11-30T13:08:38.695Z,99.99
2017-11-30T13:09:39.264Z,99.99
2017-11-30T13:10:39.835Z,99.99
2017-11-30T13:11:40.402Z,99.99
2017-11-30T13:12:40.973Z,99.99
2017-11-30T13:13:41.544Z,99.99
2017-11-30T13:14:42.113Z,99.99
2017-11-30T13:15:42.697Z,99.99
2017-11-30T13:16:43.266Z,99.99
2017-11-30T13:17:43.835Z,99.99
2017-11-30T13:18:44.406Z,99.99
2017-11-30T13:19:44.976Z,99.99
2017-11-30T13:20:45.544Z,99.99
2017-11-30T13:21:46.114Z,99.99
2017-11-30T13:22:46.683Z,99.99
2017-11-30T13:23:47.254Z,99.99
2017-11-30T13:24:47.825Z,99.99
2017-11-30T13:25:48.394Z,99.99
2017-11-30T13:26:48.963Z,99.99
2017-11-30T13:27:49.534Z,99.99